WXM80 ListenWXM80 Stop

You find our weather info also at:

UK Metoffice

WeatherCloud

Weather Underground

Northeastern Weather Network

AWEKAS

Citizen Weather Observer Program (CWOP)

HAMweather, WeatherForYou, PWS Weather


Weather Underground History page Text

Daily Summary for October 18, 2017 Units:  English    Metric   Both
« Previous Day
Next Day »
Daily Weekly Monthly Yearly Custom
  High: Low: Average:
Temperature: 73.2 °F 45.7 °F 58.3 °F
Dew Point: 54.8 °F 40.8 °F 48.4 °F
Humidity: 85 % 48 % 71 %
Wind Speed: 4.6 mph 0.0 mph 1.1 mph
Wind Gust: 8.1 mph - -
Wind:- - WSW
Pressure: 30.32 in 30.04 in -
Precipitation: 0.00 in    
Historical Graphs
 
 
Tabular Data for October 18, 2017
Time Temperature Dew Point Pressure Wind Wind Speed Wind Gust Humidity Rainfall Rate (Hourly)
00:01 50.2 °F 43.3 °F 30.28 in SW 1.9 mph 4.0 mph 77 % 0.00 in
00:06 50.2 °F 43.3 °F 30.28 in WSW 1.1 mph 2.3 mph 77 % 0.00 in
00:11 50.2 °F 42.9 °F 30.28 in SW 2.8 mph 5.8 mph 76 % 0.00 in
00:16 50.2 °F 42.9 °F 30.28 in SSW 0.4 mph 2.3 mph 76 % 0.00 in
00:21 50.2 °F 42.9 °F 30.28 in SSW 1.7 mph 4.6 mph 76 % 0.00 in
00:26 50.2 °F 42.9 °F 30.28 in West 1.8 mph 4.6 mph 76 % 0.00 in
00:31 50.2 °F 42.9 °F 30.28 in South 0.6 mph 2.0 mph 76 % 0.00 in
00:36 50.2 °F 42.9 °F 30.28 in WSW 0.2 mph 3.5 mph 76 % 0.00 in
00:41 50.2 °F 42.9 °F 30.27 in SSW 0.2 mph 2.3 mph 76 % 0.00 in
00:46 50.2 °F 42.9 °F 30.27 in SSW 0.2 mph 1.2 mph 76 % 0.00 in
00:51 50.1 °F 42.8 °F 30.27 in Calm     76 % 0.00 in
00:56 50.0 °F 42.7 °F 30.27 in Calm     76 % 0.00 in
01:01 49.9 °F 42.6 °F 30.27 in Calm     76 % 0.00 in
01:07 49.9 °F 43.0 °F 30.27 in Calm     77 % 0.00 in
01:12 49.7 °F 42.8 °F 30.27 in Calm     77 % 0.00 in
01:17 49.5 °F 42.6 °F 30.27 in Calm     77 % 0.00 in
01:22 49.4 °F 42.8 °F 30.28 in SSW 0.1 mph 1.2 mph 78 % 0.00 in
01:27 49.2 °F 42.6 °F 30.27 in Calm     78 % 0.00 in
01:32 49.0 °F 42.4 °F 30.27 in Calm     78 % 0.00 in
01:37 48.8 °F 42.2 °F 30.27 in Calm   1.0 mph 78 % 0.00 in
01:42 48.6 °F 42.0 °F 30.27 in SW 0.3 mph 1.2 mph 78 % 0.00 in
01:47 48.4 °F 41.9 °F 30.28 in Calm     78 % 0.00 in
01:52 48.3 °F 41.8 °F 30.28 in Calm     78 % 0.00 in
01:57 48.2 °F 41.7 °F 30.28 in SW 2.1 mph 5.8 mph 78 % 0.00 in
02:02 48.2 °F 41.7 °F 30.28 in WSW 1.2 mph 3.5 mph 78 % 0.00 in
02:07 48.2 °F 41.7 °F 30.28 in WSW 2.8 mph 4.6 mph 78 % 0.00 in
02:12 48.2 °F 41.3 °F 30.27 in West 2.8 mph 6.9 mph 77 % 0.00 in
02:17 48.3 °F 41.1 °F 30.28 in West 1.2 mph 3.5 mph 76 % 0.00 in
02:22 48.5 °F 41.3 °F 30.27 in WSW 2.2 mph 6.0 mph 76 % 0.00 in
02:27 48.7 °F 41.1 °F 30.27 in WSW 1.5 mph 3.5 mph 75 % 0.00 in
02:32 48.8 °F 41.2 °F 30.27 in WSW 0.7 mph 2.3 mph 75 % 0.00 in
02:37 48.9 °F 41.3 °F 30.27 in SSW 1.6 mph 4.6 mph 75 % 0.00 in
02:42 49.0 °F 41.1 °F 30.27 in West 1.0 mph 5.8 mph 74 % 0.00 in
02:47 49.2 °F 41.3 °F 30.27 in SSW 1.5 mph 4.0 mph 74 % 0.00 in
02:52 49.3 °F 41.4 °F 30.26 in West 0.8 mph 3.5 mph 74 % 0.00 in
02:58 49.4 °F 41.5 °F 30.26 in WSW 1.2 mph 4.6 mph 74 % 0.00 in
03:03 49.4 °F 41.5 °F 30.26 in WSW 1.4 mph 3.5 mph 74 % 0.00 in
03:08 49.5 °F 41.2 °F 30.26 in SW 3.1 mph 5.8 mph 73 % 0.00 in
03:13 49.5 °F 41.2 °F 30.25 in SW 2.6 mph 3.5 mph 73 % 0.00 in
03:18 49.6 °F 41.3 °F 30.25 in WSW 0.6 mph 5.8 mph 73 % 0.00 in
03:23 49.6 °F 41.3 °F 30.26 in WSW 0.8 mph 4.6 mph 73 % 0.00 in
03:28 49.6 °F 41.3 °F 30.25 in WSW 1.6 mph 3.5 mph 73 % 0.00 in
03:33 49.6 °F 40.9 °F 30.25 in WSW 2.3 mph 4.6 mph 72 % 0.00 in
03:38 49.5 °F 40.8 °F 30.24 in SSW 3.8 mph 6.0 mph 72 % 0.00 in
03:43 49.6 °F 40.9 °F 30.24 in SW 2.5 mph 6.9 mph 72 % 0.00 in
03:48 49.6 °F 40.9 °F 30.25 in SW 1.8 mph 3.5 mph 72 % 0.00 in
03:53 49.6 °F 41.3 °F 30.24 in SSW 1.8 mph 3.5 mph 73 % 0.00 in
03:58 49.6 °F 41.7 °F 30.24 in West 0.1 mph 3.5 mph 74 % 0.00 in
04:03 49.6 °F 41.7 °F 30.25 in West 0.6 mph 2.0 mph 74 % 0.00 in
04:08 49.5 °F 41.6 °F 30.25 in West 0.3 mph 1.2 mph 74 % 0.00 in
04:13 49.5 °F 41.6 °F 30.25 in SW 1.0 mph 3.5 mph 74 % 0.00 in
04:18 49.4 °F 41.5 °F 30.25 in Calm   1.2 mph 74 % 0.00 in
04:23 49.4 °F 41.8 °F 30.24 in SW 0.3 mph 2.3 mph 75 % 0.00 in
04:28 49.3 °F 42.1 °F 30.24 in SW 1.9 mph 3.5 mph 76 % 0.00 in
04:33 49.2 °F 42.0 °F 30.25 in Calm     76 % 0.00 in
04:38 49.1 °F 41.9 °F 30.25 in Calm     76 % 0.00 in
04:43 49.0 °F 41.8 °F 30.25 in Calm     76 % 0.00 in
04:48 48.9 °F 41.3 °F 30.26 in Calm     75 % 0.00 in
04:53 48.8 °F 41.6 °F 30.26 in Calm     76 % 0.00 in
04:58 48.6 °F 41.4 °F 30.26 in Calm     76 % 0.00 in
05:03 48.5 °F 41.3 °F 30.26 in Calm     76 % 0.00 in
05:09 48.4 °F 41.2 °F 30.26 in Calm     76 % 0.00 in
05:14 48.3 °F 41.1 °F 30.26 in Calm     76 % 0.00 in
05:19 48.1 °F 41.2 °F 30.27 in Calm     77 % 0.00 in
05:24 48.0 °F 41.1 °F 30.27 in SW 1.1 mph 2.3 mph 77 % 0.00 in
05:29 47.9 °F 41.0 °F 30.27 in WSW 0.2 mph 1.2 mph 77 % 0.00 in
05:34 47.8 °F 41.3 °F 30.27 in Calm   1.2 mph 78 % 0.00 in
05:39 47.7 °F 41.2 °F 30.27 in Calm     78 % 0.00 in
05:44 47.6 °F 41.1 °F 30.27 in Calm     78 % 0.00 in
05:49 47.5 °F 41.3 °F 30.27 in Calm     79 % 0.00 in
05:54 47.4 °F 41.2 °F 30.27 in West 0.9 mph 2.3 mph 79 % 0.00 in
05:59 47.3 °F 41.1 °F 30.27 in Calm     79 % 0.00 in
06:00 47.3 °F 41.1 °F 30.27 in Calm   1.2 mph 79 % 0.00 in
06:05 47.2 °F 41.3 °F 30.28 in West 0.3 mph 2.3 mph 80 % 0.00 in
06:10 47.1 °F 41.6 °F 30.28 in Calm     81 % 0.00 in
06:15 46.9 °F 41.4 °F 30.28 in Calm     81 % 0.00 in
06:20 46.7 °F 41.2 °F 30.28 in West 0.4 mph 1.2 mph 81 % 0.00 in
06:25 46.6 °F 41.4 °F 30.28 in West 0.4 mph 1.2 mph 82 % 0.00 in
06:30 46.4 °F 41.2 °F 30.28 in West 0.1 mph 1.2 mph 82 % 0.00 in
06:35 46.3 °F 41.1 °F 30.28 in Calm   1.2 mph 82 % 0.00 in
06:40 46.1 °F 41.2 °F 30.27 in West 1.4 mph 3.0 mph 83 % 0.00 in
06:45 45.9 °F 41.3 °F 30.28 in West 1.0 mph 2.3 mph 84 % 0.00 in
06:50 45.7 °F 41.1 °F 30.27 in SW 0.7 mph 2.3 mph 84 % 0.00 in
06:56 45.7 °F 41.1 °F 30.27 in WSW 2.0 mph 6.0 mph 84 % 0.00 in
07:01 45.7 °F 41.1 °F 30.27 in WSW 1.3 mph 3.5 mph 84 % 0.00 in
07:06 45.8 °F 41.2 °F 30.27 in West 0.9 mph 3.5 mph 84 % 0.00 in
07:11 46.0 °F 41.4 °F 30.28 in West 2.0 mph 5.0 mph 84 % 0.00 in
07:16 46.2 °F 41.6 °F 30.28 in WSW 2.1 mph 4.6 mph 84 % 0.00 in
07:18 46.3 °F 41.7 °F 30.28 in WSW 3.0 mph 3.5 mph 84 % 0.00 in
07:22 46.5 °F 41.6 °F 30.28 in SW 2.5 mph 4.6 mph 83 % 0.00 in
07:28 46.8 °F 41.9 °F 30.28 in SW 2.9 mph 3.5 mph 83 % 0.00 in
07:33 47.1 °F 41.9 °F 30.29 in WSW 2.3 mph 6.9 mph 82 % 0.00 in
07:38 47.4 °F 42.2 °F 30.29 in WSW 2.1 mph 4.6 mph 82 % 0.00 in
07:43 47.7 °F 42.2 °F 30.29 in SW 2.2 mph 6.9 mph 81 % 0.00 in
07:48 48.0 °F 42.4 °F 30.29 in SW 3.1 mph 5.8 mph 81 % 0.00 in
07:53 48.2 °F 42.3 °F 30.29 in WSW 4.0 mph 5.8 mph 80 % 0.00 in
07:58 48.5 °F 42.6 °F 30.29 in SSW 2.3 mph 3.5 mph 80 % 0.00 in
08:03 48.7 °F 42.8 °F 30.29 in SW 1.5 mph 5.0 mph 80 % 0.00 in
08:08 48.9 °F 42.7 °F 30.30 in Calm     79 % 0.00 in
08:13 49.2 °F 42.6 °F 30.31 in Calm     78 % 0.00 in
08:18 49.4 °F 43.2 °F 30.30 in SW 1.8 mph 3.5 mph 79 % 0.00 in
08:23 49.6 °F 43.4 °F 30.30 in SW 1.8 mph 3.5 mph 79 % 0.00 in
08:28 49.8 °F 43.5 °F 30.30 in SW 3.0 mph 6.0 mph 79 % 0.00 in
08:33 50.0 °F 43.7 °F 30.30 in SSW 3.5 mph 4.6 mph 79 % 0.00 in
08:38 50.2 °F 43.6 °F 30.30 in SSW 2.1 mph 3.5 mph 78 % 0.00 in
08:43 50.4 °F 44.1 °F 30.30 in WSW 3.8 mph 5.0 mph 79 % 0.00 in
08:48 50.7 °F 44.1 °F 30.30 in SW 2.6 mph 4.0 mph 78 % 0.00 in
08:53 50.9 °F 44.3 °F 30.30 in SSW 3.2 mph 4.6 mph 78 % 0.00 in
08:58 51.2 °F 44.2 °F 30.30 in WSW 3.3 mph 4.6 mph 77 % 0.00 in
09:03 51.5 °F 44.5 °F 30.30 in WSW 4.5 mph 6.0 mph 77 % 0.00 in
09:08 51.8 °F 44.5 °F 30.31 in West 1.7 mph 3.5 mph 76 % 0.00 in
09:09 51.8 °F 44.5 °F 30.31 in West 1.8 mph 4.0 mph 76 % 0.00 in
09:14 52.2 °F 45.2 °F 30.31 in WSW 1.1 mph 4.6 mph 77 % 0.00 in
09:19 52.5 °F 45.5 °F 30.30 in WNW 3.9 mph 5.8 mph 77 % 0.00 in
09:24 52.8 °F 45.8 °F 30.30 in West 3.5 mph 7.0 mph 77 % 0.00 in
09:29 53.2 °F 46.5 °F 30.30 in SW 4.4 mph 5.8 mph 78 % 0.00 in
09:34 53.5 °F 46.8 °F 30.30 in WNW 1.6 mph 3.5 mph 78 % 0.00 in
09:39 53.9 °F 47.2 °F 30.31 in WSW 2.2 mph 3.5 mph 78 % 0.00 in
09:44 54.3 °F 47.2 °F 30.31 in WNW 3.6 mph 6.9 mph 77 % 0.00 in
09:49 54.7 °F 47.6 °F 30.31 in West 4.0 mph 5.0 mph 77 % 0.00 in
09:54 55.1 °F 47.7 °F 30.31 in SSW 4.6 mph 5.8 mph 76 % 0.00 in
09:59 55.7 °F 48.2 °F 30.30 in West 2.9 mph 4.0 mph 76 % 0.00 in
10:04 56.2 °F 48.7 °F 30.30 in WSW 1.5 mph 3.5 mph 76 % 0.00 in
10:09 56.8 °F 49.0 °F 30.30 in SW 3.5 mph 7.0 mph 75 % 0.00 in
10:14 57.3 °F 48.7 °F 30.30 in WNW 2.1 mph 4.6 mph 73 % 0.00 in
10:19 57.7 °F 49.5 °F 30.30 in WNW 0.5 mph 2.3 mph 74 % 0.00 in
10:24 58.1 °F 49.5 °F 30.30 in WNW 0.1 mph 1.2 mph 73 % 0.00 in
10:29 58.4 °F 49.8 °F 30.30 in West 3.3 mph 4.0 mph 73 % 0.00 in
10:34 58.7 °F 49.7 °F 30.30 in West 1.4 mph 6.9 mph 72 % 0.00 in
10:39 58.9 °F 49.9 °F 30.30 in WSW 0.5 mph 3.5 mph 72 % 0.00 in
10:44 59.1 °F 50.1 °F 30.30 in WNW 1.3 mph 3.5 mph 72 % 0.00 in
10:50 59.3 °F 49.9 °F 30.30 in NW 2.0 mph 3.5 mph 71 % 0.00 in
10:55 59.5 °F 49.7 °F 30.30 in WNW 2.9 mph 8.1 mph 70 % 0.00 in
11:00 59.7 °F 49.5 °F 30.30 in WNW 0.3 mph 3.0 mph 69 % 0.00 in
11:05 59.9 °F 50.1 °F 30.30 in WSW 3.9 mph 5.8 mph 70 % 0.00 in
11:10 60.2 °F 50.0 °F 30.30 in West 3.7 mph 5.8 mph 69 % 0.00 in
11:15 60.6 °F 50.4 °F 30.30 in WNW 1.2 mph 3.5 mph 69 % 0.00 in
11:20 61.2 °F 50.2 °F 30.30 in SW 2.3 mph 3.5 mph 67 % 0.00 in
11:25 62.0 °F 51.7 °F 30.30 in SSW 2.9 mph 7.0 mph 69 % 0.00 in
11:30 63.0 °F 52.3 °F 30.30 in WSW 1.2 mph 4.6 mph 68 % 0.00 in
11:35 63.9 °F 52.3 °F 30.30 in NNW 1.1 mph 3.5 mph 66 % 0.00 in
11:40 64.9 °F 52.8 °F 30.31 in WNW 1.5 mph 3.0 mph 65 % 0.00 in
11:45 65.8 °F 53.3 °F 30.31 in Calm   2.3 mph 64 % 0.00 in
11:50 66.8 °F 52.5 °F 30.31 in WNW 1.7 mph 3.5 mph 60 % 0.00 in
11:55 67.6 °F 53.7 °F 30.31 in WNW 0.3 mph 1.2 mph 61 % 0.00 in
12:00 68.1 °F 52.3 °F 30.31 in WNW 3.6 mph 5.0 mph 57 % 0.00 in
12:05 68.5 °F 52.7 °F 30.30 in NW 2.9 mph 3.5 mph 57 % 0.00 in
12:10 68.7 °F 54.3 °F 30.30 in NW 0.1 mph 1.2 mph 60 % 0.00 in
12:16 69.2 °F 52.8 °F 30.30 in Calm   2.0 mph 56 % 0.00 in
12:20 69.5 °F 52.6 °F 30.30 in Calm   3.0 mph 55 % 0.00 in
12:25 69.6 °F 51.7 °F 30.30 in West 2.2 mph 3.5 mph 53 % 0.00 in
12:30 69.7 °F 52.3 °F 30.30 in West 1.0 mph 4.0 mph 54 % 0.00 in
12:35 69.7 °F 51.8 °F 30.30 in West 1.0 mph 3.0 mph 53 % 0.00 in
12:41 69.7 °F 53.8 °F 30.30 in Calm   2.0 mph 57 % 0.00 in
12:45 69.8 °F 53.4 °F 30.29 in Calm   3.0 mph 56 % 0.00 in
12:51 70.0 °F 51.0 °F 30.29 in WNW 1.0 mph 6.0 mph 51 % 0.00 in
12:55 70.1 °F 51.7 °F 30.29 in Calm   4.0 mph 52 % 0.00 in
13:01 70.3 °F 51.8 °F 30.32 in WSW 2.6 mph 3.5 mph 52 % 0.00 in
13:06 70.5 °F 51.0 °F 30.30 in West 3.3 mph 6.9 mph 50 % 0.00 in
13:11 70.7 °F 53.2 °F 30.28 in NW 0.7 mph 3.5 mph 54 % 0.00 in
13:16 70.9 °F 53.4 °F 30.28 in NW 1.4 mph 3.5 mph 54 % 0.00 in
13:21 71.0 °F 52.5 °F 30.27 in West 2.0 mph 3.5 mph 52 % 0.00 in
13:26 71.1 °F 52.6 °F 30.27 in WNW 1.5 mph 3.5 mph 52 % 0.00 in
13:31 71.2 °F 53.7 °F 30.27 in WNW 0.2 mph 3.5 mph 54 % 0.00 in
13:36 71.3 °F 54.3 °F 30.27 in WSW 2.2 mph 3.5 mph 55 % 0.00 in
13:41 71.3 °F 51.1 °F 30.27 in WNW 1.4 mph 3.5 mph 49 % 0.00 in
13:46 71.5 °F 51.9 °F 30.27 in WNW 2.7 mph 5.0 mph 50 % 0.00 in
13:51 71.6 °F 52.0 °F 30.26 in WSW 2.7 mph 4.0 mph 50 % 0.00 in
13:56 71.7 °F 52.1 °F 30.26 in West 1.2 mph 4.0 mph 50 % 0.00 in
14:01 71.8 °F 51.0 °F 30.26 in WNW 2.8 mph 5.8 mph 48 % 0.00 in
14:11 71.9 °F 52.2 °F 30.26 in NW 2.1 mph 5.8 mph 50 % 0.00 in
14:16 72.0 °F 52.3 °F 30.26 in WNW 1.7 mph 3.5 mph 50 % 0.00 in
14:21 72.1 °F 51.9 °F 30.26 in WNW 1.7 mph 3.5 mph 49 % 0.00 in
14:26 72.2 °F 52.0 °F 30.26 in Calm     49 % 0.00 in
14:31 72.4 °F 52.7 °F 30.25 in SSW 3.0 mph 4.0 mph 50 % 0.00 in
14:36 72.5 °F 52.8 °F 30.25 in WSW 2.7 mph 3.5 mph 50 % 0.00 in
14:41 72.6 °F 53.4 °F 30.25 in WSW 1.4 mph 3.5 mph 51 % 0.00 in
14:46 72.8 °F 53.1 °F 30.25 in West 0.9 mph 2.3 mph 50 % 0.00 in
14:51 73.0 °F 52.1 °F 30.28 in WSW 2.9 mph 5.0 mph 48 % 0.00 in
14:56 73.1 °F 52.8 °F 30.25 in West 2.4 mph 3.5 mph 49 % 0.00 in
15:01 73.2 °F 52.3 °F 30.25 in WNW 1.4 mph 3.5 mph 48 % 0.00 in
15:06 73.2 °F 52.3 °F 30.25 in WNW 1.3 mph 3.5 mph 48 % 0.00 in
15:11 73.2 °F 52.9 °F 30.25 in WNW 1.6 mph 3.5 mph 49 % 0.00 in
15:16 73.2 °F 52.9 °F 30.25 in WNW 0.6 mph 2.3 mph 49 % 0.00 in
15:21 73.0 °F 52.7 °F 30.25 in WNW 0.7 mph 2.3 mph 49 % 0.00 in
15:26 72.8 °F 53.1 °F 30.25 in Calm   1.2 mph 50 % 0.00 in
15:31 72.6 °F 52.3 °F 30.24 in West 0.1 mph 1.0 mph 49 % 0.00 in
15:36 72.4 °F 52.7 °F 30.24 in WNW 0.3 mph 3.5 mph 50 % 0.00 in
15:41 72.2 °F 52.5 °F 30.24 in WNW 1.8 mph 3.5 mph 50 % 0.00 in
15:46 72.0 °F 52.3 °F 30.24 in WNW 0.6 mph 3.0 mph 50 % 0.00 in
15:51 71.7 °F 52.6 °F 30.24 in Calm     51 % 0.00 in
15:56 71.6 °F 52.0 °F 30.24 in WSW 0.7 mph 2.3 mph 50 % 0.00 in
16:01 71.4 °F 52.3 °F 30.24 in Calm   1.2 mph 51 % 0.00 in
16:07 71.2 °F 52.1 °F 30.24 in SSW 1.2 mph 3.5 mph 51 % 0.00 in
16:12 71.0 °F 52.5 °F 30.24 in WSW 2.8 mph 3.5 mph 52 % 0.00 in
16:17 70.9 °F 52.9 °F 30.23 in WSW 0.1 mph 1.2 mph 53 % 0.00 in
16:22 70.7 °F 52.2 °F 30.24 in West 0.4 mph 2.3 mph 52 % 0.00 in
16:28 70.6 °F 52.6 °F 30.23 in West 1.8 mph 3.5 mph 53 % 0.00 in
16:33 70.5 °F 52.5 °F 30.23 in West 0.3 mph 2.3 mph 53 % 0.00 in
16:38 70.4 °F 52.4 °F 30.23 in West 0.8 mph 2.3 mph 53 % 0.00 in
16:43 70.2 °F 52.3 °F 30.23 in West 0.3 mph 1.2 mph 53 % 0.00 in
16:48 70.1 °F 52.2 °F 30.23 in Calm     53 % 0.00 in
16:58 69.9 °F 52.5 °F 30.23 in WSW 1.1 mph 3.5 mph 54 % 0.00 in
17:03 69.7 °F 52.8 °F 30.23 in Calm     55 % 0.00 in
17:08 69.7 °F 53.3 °F 30.23 in Calm     56 % 0.00 in
17:13 69.5 °F 53.1 °F 30.26 in Calm     56 % 0.00 in
17:18 69.4 °F 54.0 °F 30.24 in SE 1.7 mph 5.0 mph 58 % 0.00 in
17:23 69.1 °F 53.7 °F 30.24 in SE 0.4 mph   58 % 0.00 in
17:29 68.9 °F 54.0 °F 30.24 in Calm   1.2 mph 59 % 0.00 in
17:34 68.7 °F 53.8 °F 30.24 in Calm     59 % 0.00 in
17:39 68.4 °F 53.5 °F 30.24 in Calm   1.2 mph 59 % 0.00 in
17:44 68.1 °F 53.2 °F 30.24 in Calm   1.2 mph 59 % 0.00 in
17:49 67.9 °F 53.5 °F 30.24 in Calm     60 % 0.00 in
17:54 67.6 °F 53.2 °F 30.24 in Calm     60 % 0.00 in
17:59 67.3 °F 53.4 °F 30.24 in Calm   1.2 mph 61 % 0.00 in
18:04 66.9 °F 53.0 °F 30.25 in Calm     61 % 0.00 in
18:09 66.6 °F 52.7 °F 30.25 in Calm     61 % 0.00 in
18:14 66.2 °F 52.8 °F 30.25 in Calm     62 % 0.00 in
18:19 65.9 °F 52.5 °F 30.25 in SE 0.1 mph 1.2 mph 62 % 0.00 in
18:24 65.5 °F 52.6 °F 30.25 in Calm   1.2 mph 63 % 0.00 in
18:29 65.2 °F 52.7 °F 30.25 in SE 0.2 mph 1.2 mph 64 % 0.00 in
18:34 64.8 °F 52.3 °F 30.25 in SE 0.3 mph 1.2 mph 64 % 0.00 in
18:39 64.4 °F 52.4 °F 30.25 in SE 0.5 mph 1.2 mph 65 % 0.00 in
18:44 64.1 °F 52.5 °F 30.26 in SE 0.3 mph 1.2 mph 66 % 0.00 in
18:49 63.7 °F 52.1 °F 30.26 in Calm   1.2 mph 66 % 0.00 in
18:54 63.4 °F 52.2 °F 30.26 in SW 0.2 mph 1.2 mph 67 % 0.00 in
18:59 63.1 °F 52.4 °F 30.26 in WSW 0.9 mph 2.3 mph 68 % 0.00 in
19:05 62.8 °F 52.5 °F 30.26 in WSW 1.2 mph 3.5 mph 69 % 0.00 in
19:10 62.6 °F 52.7 °F 30.26 in WSW 0.8 mph 3.5 mph 70 % 0.00 in
19:14 62.3 °F 52.8 °F 30.26 in WSW 0.2 mph 1.2 mph 71 % 0.00 in
19:20 62.1 °F 53.0 °F 30.26 in WSW 0.7 mph 2.3 mph 72 % 0.00 in
19:25 61.9 °F 52.8 °F 30.26 in WSW 0.7 mph 2.3 mph 72 % 0.00 in
19:26 61.8 °F 53.1 °F 30.26 in WSW 0.8 mph 2.0 mph 73 % 0.00 in
19:31 61.7 °F 53.0 °F 30.26 in WSW 0.5 mph 2.3 mph 73 % 0.00 in
19:36 61.5 °F 53.1 °F 30.26 in WSW 0.4 mph 3.5 mph 74 % 0.00 in
19:41 61.3 °F 53.3 °F 30.26 in WSW 0.5 mph 1.2 mph 75 % 0.00 in
19:46 61.2 °F 53.2 °F 30.26 in WSW 1.8 mph 2.3 mph 75 % 0.00 in
19:51 61.1 °F 53.1 °F 30.26 in WSW 1.1 mph 2.3 mph 75 % 0.00 in
19:56 61.0 °F 53.0 °F 30.26 in WSW 0.6 mph 3.5 mph 75 % 0.00 in
20:01 60.9 °F 53.3 °F 30.26 in Calm     76 % 0.00 in
20:06 60.8 °F 53.5 °F 30.26 in WSW 0.5 mph 2.3 mph 77 % 0.00 in
20:12 60.7 °F 53.4 °F 30.26 in WSW 0.8 mph 3.5 mph 77 % 0.00 in
20:17 60.6 °F 53.3 °F 30.26 in WSW 0.9 mph 2.3 mph 77 % 0.00 in
20:22 60.5 °F 53.3 °F 30.26 in SW 0.5 mph 3.5 mph 77 % 0.00 in
20:27 60.4 °F 53.5 °F 30.26 in SSW 0.7 mph 2.3 mph 78 % 0.00 in
20:32 60.3 °F 53.8 °F 30.27 in SW 1.0 mph 2.3 mph 79 % 0.00 in
20:37 60.3 °F 53.8 °F 30.27 in SW 1.1 mph 3.5 mph 79 % 0.00 in
20:42 60.2 °F 53.7 °F 30.27 in SW 0.8 mph 3.0 mph 79 % 0.00 in
20:47 60.2 °F 54.0 °F 30.27 in SW 0.5 mph 5.8 mph 80 % 0.00 in
20:52 60.2 °F 54.0 °F 30.27 in WSW 1.3 mph 3.5 mph 80 % 0.00 in
20:57 60.2 °F 54.0 °F 30.27 in WSW 0.8 mph 1.2 mph 80 % 0.00 in
21:02 60.1 °F 54.2 °F 30.27 in SW 0.1 mph 3.5 mph 81 % 0.00 in
21:07 60.1 °F 54.2 °F 30.27 in WSW 0.3 mph 1.2 mph 81 % 0.00 in
21:12 60.0 °F 54.2 °F 30.27 in WSW 0.9 mph 2.3 mph 81 % 0.00 in
21:18 60.0 °F 54.5 °F 30.27 in WSW 0.7 mph 3.0 mph 82 % 0.00 in
21:23 59.9 °F 54.4 °F 30.27 in SW 0.5 mph 3.5 mph 82 % 0.00 in
21:28 59.9 °F 54.4 °F 30.27 in SW 0.4 mph 1.2 mph 82 % 0.00 in
21:33 59.8 °F 54.3 °F 30.27 in SW 1.1 mph 2.3 mph 82 % 0.00 in
21:38 59.8 °F 54.6 °F 30.28 in SW 0.4 mph 2.3 mph 83 % 0.00 in
21:43 59.8 °F 54.6 °F 30.28 in SSW 0.4 mph 2.3 mph 83 % 0.00 in
21:48 59.7 °F 54.5 °F 30.27 in SSW 0.7 mph 1.2 mph 83 % 0.00 in
21:53 59.6 °F 54.4 °F 30.28 in SSW 1.3 mph 2.3 mph 83 % 0.00 in
21:58 59.6 °F 54.4 °F 30.27 in SSW 0.7 mph 2.0 mph 83 % 0.00 in
22:03 59.5 °F 54.3 °F 30.27 in SW 0.4 mph 2.3 mph 83 % 0.00 in
22:08 59.4 °F 54.2 °F 30.27 in SW 0.2 mph 3.5 mph 83 % 0.00 in
22:13 59.4 °F 54.2 °F 30.27 in SW 0.7 mph 3.5 mph 83 % 0.00 in
22:18 59.3 °F 54.1 °F 30.27 in SSW 0.1 mph 2.3 mph 83 % 0.00 in
22:23 59.3 °F 54.1 °F 30.27 in South 0.5 mph 1.2 mph 83 % 0.00 in
22:28 59.3 °F 54.5 °F 30.27 in WSW 0.9 mph 2.0 mph 84 % 0.00 in
22:33 59.3 °F 54.5 °F 30.27 in WSW 0.1 mph 3.5 mph 84 % 0.00 in
22:38 59.3 °F 54.5 °F 30.27 in WSW 0.7 mph 1.2 mph 84 % 0.00 in
22:44 59.3 °F 54.8 °F 30.27 in WSW 2.7 mph 5.0 mph 85 % 0.00 in
22:49 59.3 °F 54.8 °F 30.27 in SW 0.9 mph 3.5 mph 85 % 0.00 in
22:54 59.2 °F 54.7 °F 30.27 in West 1.3 mph 5.0 mph 85 % 0.00 in
22:59 59.2 °F 54.7 °F 30.27 in WSW 0.9 mph 3.5 mph 85 % 0.00 in
23:04 59.2 °F 54.4 °F 30.27 in SW 0.6 mph 3.5 mph 84 % 0.00 in
23:09 59.2 °F 54.4 °F 30.27 in SW 0.8 mph 2.3 mph 84 % 0.00 in
23:17 59.1 °F 54.3 °F 30.27 in SW 1.2 mph 4.0 mph 84 % 0.00 in
23:20 59.1 °F 54.3 °F 30.27 in SW 1.3 mph 8.1 mph 84 % 0.00 in
23:21 59.1 °F 54.3 °F 30.27 in SW 1.5 mph 3.5 mph 84 % 0.00 in
23:26 59.1 °F 53.9 °F 30.27 in WSW 1.0 mph 3.5 mph 83 % 0.00 in
23:27 59.1 °F 53.9 °F 30.04 in WSW 0.6 mph 2.3 mph 83 % 0.00 in
23:28 59.1 °F 53.9 °F 30.27 in WSW 0.7 mph 2.3 mph 83 % 0.00 in
23:31 59.1 °F 53.9 °F 30.27 in WSW 1.1 mph 5.8 mph 83 % 0.00 in
23:36 59.1 °F 53.6 °F 30.27 in WSW 0.5 mph 2.0 mph 82 % 0.00 in
23:39 59.1 °F 53.6 °F 30.04 in WSW 1.0 mph 2.3 mph 82 % 0.00 in
23:41 59.1 °F 53.6 °F 30.27 in WSW 1.3 mph 3.5 mph 82 % 0.00 in
23:46 59.2 °F 53.7 °F 30.26 in SW 2.1 mph 3.5 mph 82 % 0.00 in
23:51 59.2 °F 53.4 °F 30.27 in SW 1.5 mph 3.0 mph 81 % 0.00 in
23:56 59.1 °F 53.3 °F 30.27 in West 2.0 mph 3.5 mph 81 % 0.00 in
Crab Meadow Weather
Compliments of Weather Underground - 3 mb

Script developed by  Jim McMurry - jmcmurry@mwt.net Adapted for the template by  Wim van der Kuil - Leuven-Template.eu

Recycling: Americans threw away 38 billion plastic water bottles in 2006. A million and a half barrels of oil - enough to fuel 100,000 cars for a year - were used to produce the bottles.